createdAt,value
2016-12-20T00:00:25.615Z,0
2016-12-20T00:01:25.598Z,0
2016-12-20T00:02:25.580Z,0
2016-12-20T00:03:25.559Z,0
2016-12-20T00:04:25.537Z,0
2016-12-20T00:05:25.529Z,0
2016-12-20T00:06:25.507Z,0
2016-12-20T00:07:25.488Z,0
2016-12-20T00:08:25.499Z,0
2016-12-20T00:09:25.445Z,0
2016-12-20T00:10:25.431Z,0
2016-12-20T00:11:25.751Z,0
2016-12-20T00:12:25.388Z,0
2016-12-20T00:13:25.376Z,0
2016-12-20T00:14:25.350Z,0
2016-12-20T00:15:25.335Z,0
2016-12-20T00:16:25.314Z,0
2016-12-20T00:17:25.297Z,0
2016-12-20T00:18:25.280Z,0
2016-12-20T00:19:25.262Z,0
2016-12-20T00:20:25.244Z,0
2016-12-20T00:21:25.260Z,0
2016-12-20T00:22:25.204Z,0
2016-12-20T00:23:25.186Z,0
2016-12-20T00:24:25.166Z,0
2016-12-20T00:25:25.150Z,0
2016-12-20T00:26:25.161Z,0
2016-12-20T00:27:25.111Z,0
2016-12-20T00:28:25.089Z,0
2016-12-20T00:29:25.081Z,0
2016-12-20T00:30:25.051Z,0
2016-12-20T00:31:25.039Z,0
2016-12-20T00:32:25.023Z,0
2016-12-20T00:33:24.995Z,0
2016-12-20T00:34:24.983Z,0
2016-12-20T00:35:24.957Z,0
2016-12-20T00:36:24.946Z,0
2016-12-20T00:37:24.923Z,0
2016-12-20T00:38:24.907Z,0
2016-12-20T00:39:24.917Z,0
2016-12-20T00:40:24.872Z,0
2016-12-20T00:41:24.892Z,0
2016-12-20T00:42:24.830Z,0
2016-12-20T00:43:24.819Z,0
2016-12-20T00:44:24.795Z,0
2016-12-20T00:45:24.779Z,0
2016-12-20T00:46:24.755Z,0
2016-12-20T00:47:24.738Z,0
2016-12-20T00:48:25.052Z,0
2016-12-20T00:49:24.700Z,0
2016-12-20T00:50:24.688Z,0
2016-12-20T00:51:24.666Z,0
2016-12-20T00:52:24.646Z,0
2016-12-20T00:53:24.622Z,0
2016-12-20T00:54:24.612Z,0
2016-12-20T00:55:24.584Z,0
2016-12-20T00:56:24.577Z,0
2016-12-20T00:57:24.552Z,0
2016-12-20T00:58:24.530Z,0
2016-12-20T00:59:24.515Z,0
2016-12-20T01:00:24.498Z,0
2016-12-20T01:01:24.530Z,0
2016-12-20T01:02:24.455Z,0
2016-12-20T01:03:24.443Z,0
2016-12-20T01:04:24.734Z,0
2016-12-20T01:05:24.404Z,0
2016-12-20T01:06:24.384Z,0
2016-12-20T01:07:24.364Z,0
2016-12-20T01:08:24.347Z,0
2016-12-20T01:09:24.334Z,0
2016-12-20T01:10:24.311Z,0
2016-12-20T01:11:24.326Z,0
2016-12-20T01:12:24.274Z,0
2016-12-20T01:13:24.253Z,0
2016-12-20T01:14:24.238Z,0
2016-12-20T01:15:24.213Z,0
2016-12-20T01:16:24.194Z,0
2016-12-20T01:17:24.178Z,0
2016-12-20T01:18:24.153Z,0
2016-12-20T01:19:24.135Z,0
2016-12-20T01:20:24.121Z,0
2016-12-20T01:21:24.099Z,0
2016-12-20T01:22:24.088Z,0
2016-12-20T01:23:24.061Z,0
2016-12-20T01:24:24.042Z,0
2016-12-20T01:25:24.029Z,0
2016-12-20T01:26:24.003Z,0
2016-12-20T01:27:23.990Z,0
2016-12-20T01:28:23.969Z,0
2016-12-20T01:29:24.262Z,0
2016-12-20T01:30:23.938Z,0
2016-12-20T01:31:23.913Z,0
2016-12-20T01:32:23.895Z,0
2016-12-20T01:33:23.871Z,0
2016-12-20T01:34:23.887Z,0
2016-12-20T01:35:23.841Z,0
2016-12-20T01:36:23.812Z,0
2016-12-20T01:37:23.797Z,0
2016-12-20T01:38:23.782Z,0
2016-12-20T01:39:23.758Z,0
2016-12-20T01:40:23.737Z,0
2016-12-20T01:41:23.715Z,0
2016-12-20T01:42:23.700Z,0
2016-12-20T01:43:23.677Z,0
2016-12-20T01:44:23.656Z,0
2016-12-20T01:45:23.644Z,0
2016-12-20T01:46:23.622Z,0
2016-12-20T01:47:23.599Z,0
2016-12-20T01:48:23.578Z,0
2016-12-20T01:49:23.571Z,0
2016-12-20T01:50:23.547Z,0
2016-12-20T01:51:23.840Z,0
2016-12-20T01:52:23.504Z,0
2016-12-20T01:53:23.482Z,0
2016-12-20T01:54:23.476Z,0
2016-12-20T01:55:23.442Z,0
2016-12-20T01:56:23.432Z,0
2016-12-20T01:57:23.407Z,0
2016-12-20T01:58:23.391Z,0
2016-12-20T01:59:23.691Z,0
2016-12-20T02:00:23.349Z,0
2016-12-20T02:01:23.336Z,0
2016-12-20T02:02:23.462Z,0
2016-12-20T02:03:23.327Z,0
2016-12-20T02:04:23.312Z,0
2016-12-20T02:05:23.566Z,0
2016-12-20T02:06:23.226Z,0
2016-12-20T02:07:23.216Z,0
2016-12-20T02:08:23.199Z,0
2016-12-20T02:09:23.179Z,0
2016-12-20T02:10:23.185Z,0
2016-12-20T02:11:23.136Z,0
2016-12-20T02:12:23.122Z,0
2016-12-20T02:13:23.104Z,0
2016-12-20T02:14:23.075Z,0
2016-12-20T02:15:23.058Z,0
2016-12-20T02:16:23.039Z,0
2016-12-20T02:17:23.017Z,0
2016-12-20T02:18:23.000Z,0
2016-12-20T02:19:22.985Z,0
2016-12-20T02:20:22.959Z,0
2016-12-20T02:21:22.947Z,0
2016-12-20T02:22:22.926Z,0
2016-12-20T02:23:22.900Z,0
2016-12-20T02:24:22.893Z,0
2016-12-20T02:25:22.867Z,0
2016-12-20T02:26:22.847Z,0
2016-12-20T02:27:22.826Z,0
2016-12-20T02:28:22.808Z,0
2016-12-20T02:29:22.792Z,0
2016-12-20T02:30:22.769Z,0
2016-12-20T02:31:22.745Z,0
2016-12-20T02:32:22.727Z,0
2016-12-20T02:33:22.704Z,0
2016-12-20T02:34:22.684Z,0
2016-12-20T02:35:22.674Z,0
2016-12-20T02:36:22.657Z,0
2016-12-20T02:37:22.633Z,0
2016-12-20T02:38:22.616Z,0
2016-12-20T02:39:22.591Z,0
2016-12-20T02:40:35.309Z,0
2016-12-20T02:41:22.551Z,0
2016-12-20T02:42:22.526Z,0
2016-12-20T02:43:22.505Z,0
2016-12-20T02:44:22.493Z,0
2016-12-20T02:45:22.473Z,0
2016-12-20T02:46:22.448Z,0
2016-12-20T02:47:22.428Z,0
2016-12-20T02:48:22.419Z,0
2016-12-20T02:49:22.395Z,0
2016-12-20T02:50:22.378Z,0
2016-12-20T02:51:22.350Z,0
2016-12-20T02:52:22.335Z,0
2016-12-20T02:53:22.313Z,0
2016-12-20T02:54:22.323Z,0
2016-12-20T02:55:22.271Z,0
2016-12-20T02:56:22.260Z,0
2016-12-20T02:57:22.235Z,0
2016-12-20T02:58:22.216Z,0
2016-12-20T02:59:22.203Z,0
2016-12-20T03:00:22.179Z,0
2016-12-20T03:01:22.163Z,0
2016-12-20T03:02:22.142Z,0
2016-12-20T03:03:22.118Z,0
2016-12-20T03:04:22.109Z,0
2016-12-20T03:05:22.078Z,0
2016-12-20T03:06:22.061Z,0
2016-12-20T03:07:22.047Z,0
2016-12-20T03:08:22.022Z,0
2016-12-20T03:09:22.000Z,0
2016-12-20T03:10:21.983Z,0
2016-12-20T03:11:21.967Z,0
2016-12-20T03:12:21.953Z,0
2016-12-20T03:13:21.924Z,0
2016-12-20T03:14:21.903Z,0
2016-12-20T03:15:21.887Z,0
2016-12-20T03:16:21.862Z,0
2016-12-20T03:17:21.839Z,0
2016-12-20T03:18:21.825Z,0
2016-12-20T03:19:21.804Z,0
2016-12-20T03:20:21.818Z,0
2016-12-20T03:21:21.762Z,0
2016-12-20T03:22:21.750Z,0
2016-12-20T03:23:21.726Z,0
2016-12-20T03:24:21.712Z,0
2016-12-20T03:25:21.687Z,0
2016-12-20T03:26:21.672Z,0
2016-12-20T03:27:21.646Z,0
2016-12-20T03:28:21.633Z,0
2016-12-20T03:29:21.609Z,0
2016-12-20T03:30:21.589Z,0
2016-12-20T03:31:21.577Z,0
2016-12-20T03:32:21.544Z,0
2016-12-20T03:33:21.526Z,0
2016-12-20T03:34:21.508Z,0
2016-12-20T03:35:21.491Z,0
2016-12-20T03:36:21.502Z,0
2016-12-20T03:37:21.460Z,0
2016-12-20T03:38:21.434Z,0
2016-12-20T03:39:21.413Z,0
2016-12-20T03:40:21.394Z,0
2016-12-20T03:41:21.370Z,0
2016-12-20T03:42:21.351Z,0
2016-12-20T03:43:21.334Z,0
2016-12-20T03:44:21.322Z,0
2016-12-20T03:45:21.289Z,0
2016-12-20T03:46:21.280Z,0
2016-12-20T03:47:21.257Z,0
2016-12-20T03:48:21.238Z,0
2016-12-20T03:49:21.217Z,0
2016-12-20T03:50:21.199Z,0
2016-12-20T03:51:21.175Z,0
2016-12-20T03:52:21.159Z,0
2016-12-20T03:53:21.134Z,0
2016-12-20T03:54:21.116Z,0
2016-12-20T03:55:21.097Z,0
2016-12-20T03:56:21.076Z,0
2016-12-20T03:57:21.055Z,0
2016-12-20T03:58:21.038Z,0
2016-12-20T03:59:21.017Z,0
2016-12-20T04:00:21.052Z,0
2016-12-20T04:01:20.978Z,0
2016-12-20T04:02:20.957Z,0
2016-12-20T04:03:20.939Z,0
2016-12-20T04:04:20.921Z,0
2016-12-20T04:05:20.902Z,0
2016-12-20T04:06:20.881Z,0
2016-12-20T04:07:20.860Z,0
2016-12-20T04:08:20.869Z,0
2016-12-20T04:09:20.820Z,0
2016-12-20T04:10:20.797Z,0
2016-12-20T04:11:20.780Z,0
2016-12-20T04:12:21.072Z,0
2016-12-20T04:13:20.742Z,0
2016-12-20T04:14:20.719Z,0
2016-12-20T04:15:20.703Z,0
2016-12-20T04:16:20.685Z,0
2016-12-20T04:17:21.004Z,0
2016-12-20T04:18:20.638Z,0
2016-12-20T04:19:20.618Z,0
2016-12-20T04:20:20.601Z,0
2016-12-20T04:21:20.582Z,0
2016-12-20T04:22:20.565Z,0
2016-12-20T04:23:20.544Z,0
2016-12-20T04:24:20.523Z,0
2016-12-20T04:25:20.502Z,0
2016-12-20T04:26:20.487Z,0
2016-12-20T04:27:20.463Z,0
2016-12-20T04:28:20.446Z,0
2016-12-20T04:29:20.426Z,0
2016-12-20T04:30:20.400Z,0
2016-12-20T04:31:20.705Z,0
2016-12-20T04:32:20.363Z,0
2016-12-20T04:33:20.348Z,0
2016-12-20T04:34:20.326Z,0
2016-12-20T04:35:20.340Z,0
2016-12-20T04:36:20.297Z,0
2016-12-20T04:37:20.266Z,0
2016-12-20T04:38:20.275Z,0
2016-12-20T04:39:20.237Z,0
2016-12-20T04:40:20.201Z,0
2016-12-20T04:41:20.188Z,0
2016-12-20T04:42:20.169Z,0
2016-12-20T04:43:20.147Z,0
2016-12-20T04:44:20.128Z,0
2016-12-20T04:45:20.422Z,0
2016-12-20T04:46:20.089Z,0
2016-12-20T04:47:20.066Z,0
2016-12-20T04:48:20.047Z,0
2016-12-20T04:49:20.028Z,0
2016-12-20T04:50:20.003Z,0
2016-12-20T04:51:19.999Z,0
2016-12-20T04:52:19.970Z,0
2016-12-20T04:53:19.956Z,0
2016-12-20T04:54:19.923Z,0
2016-12-20T04:55:19.909Z,0
2016-12-20T04:56:19.889Z,0
2016-12-20T04:57:19.865Z,0
2016-12-20T04:58:20.165Z,0
2016-12-20T04:59:19.831Z,0
2016-12-20T05:00:19.812Z,0
2016-12-20T05:01:20.102Z,0
2016-12-20T05:02:19.769Z,0
2016-12-20T05:03:19.748Z,0
2016-12-20T05:04:19.736Z,0
2016-12-20T05:05:19.708Z,0
2016-12-20T05:06:19.723Z,0
2016-12-20T05:07:19.665Z,0
2016-12-20T05:08:19.651Z,0
2016-12-20T05:09:19.633Z,0
2016-12-20T05:10:19.616Z,0
2016-12-20T05:11:19.591Z,0
2016-12-20T05:12:19.579Z,0
2016-12-20T05:13:19.551Z,0
2016-12-20T05:14:19.531Z,0
2016-12-20T05:15:19.523Z,0
2016-12-20T05:16:19.489Z,0
2016-12-20T05:17:19.468Z,0
2016-12-20T05:18:19.479Z,0
2016-12-20T05:19:19.437Z,0
2016-12-20T05:20:19.410Z,0
2016-12-20T05:21:19.394Z,0
2016-12-20T05:22:19.378Z,0
2016-12-20T05:23:19.356Z,0
2016-12-20T05:24:19.333Z,0
2016-12-20T05:25:19.312Z,0
2016-12-20T05:26:19.295Z,0
2016-12-20T05:27:19.274Z,0
2016-12-20T05:28:19.255Z,0
2016-12-20T05:29:19.232Z,0
2016-12-20T05:30:19.214Z,0
2016-12-20T05:31:19.193Z,0
2016-12-20T05:32:19.174Z,0
2016-12-20T05:33:19.151Z,0
2016-12-20T05:34:19.132Z,0
2016-12-20T05:35:19.109Z,0
2016-12-20T05:36:19.093Z,0
2016-12-20T05:37:19.073Z,0
2016-12-20T05:38:19.050Z,0
2016-12-20T05:39:19.037Z,0
2016-12-20T05:40:19.022Z,0
2016-12-20T05:41:18.989Z,0
2016-12-20T05:42:18.974Z,0
2016-12-20T05:43:18.951Z,0
2016-12-20T05:44:18.940Z,0
2016-12-20T05:45:18.913Z,0
2016-12-20T05:46:18.892Z,0
2016-12-20T05:47:18.870Z,0
2016-12-20T05:48:18.850Z,0
2016-12-20T05:49:18.837Z,0
2016-12-20T05:50:18.813Z,0
2016-12-20T05:51:18.794Z,0
2016-12-20T05:52:18.771Z,0
2016-12-20T05:53:18.755Z,0
2016-12-20T05:54:18.769Z,0
2016-12-20T05:55:18.709Z,0
2016-12-20T05:56:18.693Z,0
2016-12-20T05:57:18.670Z,0
2016-12-20T05:58:18.654Z,0
2016-12-20T05:59:18.636Z,0
2016-12-20T06:00:18.643Z,0
2016-12-20T06:01:18.905Z,0
2016-12-20T06:02:18.570Z,0
2016-12-20T06:03:18.581Z,0
2016-12-20T06:04:18.538Z,0
2016-12-20T06:05:18.513Z,0
2016-12-20T06:06:18.496Z,0
2016-12-20T06:07:18.472Z,0
2016-12-20T06:08:18.451Z,0
2016-12-20T06:09:18.425Z,0
2016-12-20T06:10:18.409Z,0
2016-12-20T06:11:18.392Z,0
2016-12-20T06:12:18.376Z,0
2016-12-20T06:13:18.348Z,0
2016-12-20T06:14:18.331Z,0
2016-12-20T06:15:18.312Z,0
2016-12-20T06:16:18.293Z,0
2016-12-20T06:17:18.281Z,0
2016-12-20T06:18:18.261Z,0
2016-12-20T06:19:18.227Z,0
2016-12-20T06:20:18.213Z,0
2016-12-20T06:21:18.191Z,0
2016-12-20T06:22:18.170Z,0
2016-12-20T06:23:18.152Z,0
2016-12-20T06:24:18.131Z,0
2016-12-20T06:25:18.119Z,0
2016-12-20T06:26:18.092Z,0
2016-12-20T06:27:18.078Z,0
2016-12-20T06:28:18.051Z,0
2016-12-20T06:29:18.033Z,0
2016-12-20T06:30:18.012Z,0
2016-12-20T06:31:17.992Z,0
2016-12-20T06:32:17.970Z,0
2016-12-20T06:33:17.947Z,0
2016-12-20T06:34:17.927Z,0
2016-12-20T06:35:17.906Z,0
2016-12-20T06:36:17.890Z,0
2016-12-20T06:37:18.182Z,0
2016-12-20T06:38:17.848Z,0
2016-12-20T06:39:17.828Z,0
2016-12-20T06:40:17.807Z,0
2016-12-20T06:41:17.792Z,0
2016-12-20T06:42:17.777Z,0
2016-12-20T06:43:17.754Z,0
2016-12-20T06:44:18.048Z,0
2016-12-20T06:45:17.709Z,0
2016-12-20T06:46:17.692Z,0
2016-12-20T06:47:17.674Z,0
2016-12-20T06:48:17.652Z,0
2016-12-20T06:49:17.622Z,0
2016-12-20T06:50:17.616Z,0
2016-12-20T06:51:17.584Z,0
2016-12-20T06:52:17.577Z,0
2016-12-20T06:53:17.578Z,0
2016-12-20T06:54:17.527Z,0
2016-12-20T06:55:17.506Z,0
2016-12-20T06:56:17.484Z,0
2016-12-20T06:57:17.462Z,0
2016-12-20T06:58:17.445Z,0
2016-12-20T06:59:17.422Z,0
2016-12-20T07:00:17.408Z,0
2016-12-20T07:01:17.384Z,0
2016-12-20T07:02:17.380Z,5
2016-12-20T07:03:17.344Z,5
2016-12-20T07:04:17.322Z,5
2016-12-20T07:05:17.307Z,5
2016-12-20T07:06:17.283Z,5
2016-12-20T07:07:17.578Z,5
2016-12-20T07:08:17.247Z,5
2016-12-20T07:09:17.220Z,5
2016-12-20T07:10:17.202Z,5
2016-12-20T07:11:17.183Z,10
2016-12-20T07:12:17.165Z,10
2016-12-20T07:13:17.138Z,10
2016-12-20T07:14:17.129Z,10
2016-12-20T07:15:17.101Z,10
2016-12-20T07:16:17.084Z,10
2016-12-20T07:17:17.063Z,10
2016-12-20T07:18:17.049Z,15
2016-12-20T07:19:17.028Z,15
2016-12-20T07:20:17.001Z,15
2016-12-20T07:21:16.980Z,15
2016-12-20T07:22:16.960Z,15
2016-12-20T07:23:16.945Z,15
2016-12-20T07:24:16.950Z,20
2016-12-20T07:25:16.898Z,20
2016-12-20T07:26:16.880Z,20
2016-12-20T07:27:16.858Z,20
2016-12-20T07:28:16.840Z,20
2016-12-20T07:29:16.818Z,25
2016-12-20T07:30:16.804Z,25
2016-12-20T07:31:16.775Z,25
2016-12-20T07:32:16.758Z,25
2016-12-20T07:33:16.738Z,25
2016-12-20T07:34:16.717Z,25
2016-12-20T07:35:16.697Z,30
2016-12-20T07:36:16.677Z,30
2016-12-20T07:37:16.654Z,30
2016-12-20T07:38:16.643Z,30
2016-12-20T07:39:16.616Z,30
2016-12-20T07:40:16.624Z,30
2016-12-20T07:41:16.583Z,35
2016-12-20T07:42:16.553Z,35
2016-12-20T07:43:16.534Z,35
2016-12-20T07:44:16.518Z,35
2016-12-20T07:45:16.502Z,35
2016-12-20T07:46:16.477Z,35
2016-12-20T07:47:16.453Z,40
2016-12-20T07:48:16.435Z,40
2016-12-20T07:49:16.735Z,40
2016-12-20T07:50:16.394Z,40
2016-12-20T07:51:16.374Z,40
2016-12-20T07:52:16.353Z,40
2016-12-20T07:53:16.336Z,45
2016-12-20T07:54:16.316Z,45
2016-12-20T07:55:16.295Z,45
2016-12-20T07:56:16.272Z,45
2016-12-20T07:57:16.256Z,45
2016-12-20T07:58:16.235Z,45
2016-12-20T07:59:16.218Z,45
2016-12-20T08:00:16.194Z,50
2016-12-20T08:01:16.184Z,50
2016-12-20T08:02:16.183Z,50
2016-12-20T08:03:16.131Z,50
2016-12-20T08:04:16.113Z,50
2016-12-20T08:05:16.094Z,50
2016-12-20T08:06:16.075Z,50
2016-12-20T08:07:16.055Z,55
2016-12-20T08:08:16.093Z,55
2016-12-20T08:09:16.018Z,55
2016-12-20T08:10:15.998Z,55
2016-12-20T08:11:15.978Z,55
2016-12-20T08:12:15.957Z,55
2016-12-20T08:13:15.937Z,55
2016-12-20T08:14:15.916Z,55
2016-12-20T08:15:15.892Z,55
2016-12-20T08:16:15.877Z,60
2016-12-20T08:17:15.856Z,60
2016-12-20T08:18:15.838Z,60
2016-12-20T08:19:15.817Z,60
2016-12-20T08:20:15.798Z,60
2016-12-20T08:21:15.779Z,60
2016-12-20T08:22:15.758Z,60
2016-12-20T08:23:16.048Z,60
2016-12-20T08:24:15.716Z,60
2016-12-20T08:25:15.697Z,65
2016-12-20T08:26:15.680Z,65
2016-12-20T08:27:15.658Z,65
2016-12-20T08:28:15.643Z,65
2016-12-20T08:29:15.620Z,65
2016-12-20T08:30:15.600Z,65
2016-12-20T08:31:15.577Z,65
2016-12-20T08:32:15.559Z,65
2016-12-20T08:33:15.541Z,65
2016-12-20T08:34:15.520Z,65
2016-12-20T08:35:15.497Z,65
2016-12-20T08:36:15.477Z,65
2016-12-20T08:37:15.482Z,70
2016-12-20T08:38:15.440Z,70
2016-12-20T08:39:15.421Z,70
2016-12-20T08:40:15.401Z,70
2016-12-20T08:41:15.380Z,70
2016-12-20T08:42:15.371Z,70
2016-12-20T08:43:15.345Z,70
2016-12-20T08:44:15.322Z,70
2016-12-20T08:45:15.310Z,70
2016-12-20T08:46:15.286Z,70
2016-12-20T08:47:15.263Z,70
2016-12-20T08:48:15.248Z,70
2016-12-20T08:49:15.223Z,70
2016-12-20T08:50:15.208Z,75
2016-12-20T08:51:15.186Z,75
2016-12-20T08:52:15.165Z,75
2016-12-20T08:53:15.178Z,75
2016-12-20T08:54:15.132Z,75
2016-12-20T08:55:15.111Z,75
2016-12-20T08:56:15.093Z,75
2016-12-20T08:57:15.099Z,75
2016-12-20T08:58:15.047Z,75
2016-12-20T08:59:15.031Z,75
2016-12-20T09:00:15.026Z,75
2016-12-20T09:01:14.999Z,75
2016-12-20T09:02:14.974Z,75
2016-12-20T09:03:14.960Z,75
2016-12-20T09:04:14.946Z,75
2016-12-20T09:05:15.273Z,75
2016-12-20T09:06:14.893Z,75
2016-12-20T09:07:14.882Z,75
2016-12-20T09:08:14.861Z,80
2016-12-20T09:09:14.845Z,80
2016-12-20T09:10:14.822Z,80
2016-12-20T09:11:14.803Z,80
2016-12-20T09:12:14.786Z,80
2016-12-20T09:13:14.761Z,80
2016-12-20T09:14:14.741Z,80
2016-12-20T09:15:14.726Z,80
2016-12-20T09:16:14.714Z,80
2016-12-20T09:17:14.685Z,80
2016-12-20T09:18:14.663Z,80
2016-12-20T09:19:14.647Z,80
2016-12-20T09:20:14.627Z,80
2016-12-20T09:21:14.933Z,80
2016-12-20T09:22:14.590Z,80
2016-12-20T09:23:14.571Z,80
2016-12-20T09:24:14.557Z,80
2016-12-20T09:25:14.528Z,80
2016-12-20T09:26:14.518Z,80
2016-12-20T09:27:14.498Z,80
2016-12-20T09:28:14.496Z,80
2016-12-20T09:29:14.462Z,80
2016-12-20T09:30:14.438Z,80
2016-12-20T09:31:14.421Z,85
2016-12-20T09:32:14.396Z,85
2016-12-20T09:33:14.386Z,85
2016-12-20T09:34:14.380Z,85
2016-12-20T09:35:14.348Z,85
2016-12-20T09:36:14.322Z,85
2016-12-20T09:37:14.304Z,85
2016-12-20T09:38:14.284Z,85
2016-12-20T09:39:14.340Z,85
2016-12-20T09:40:14.247Z,85
2016-12-20T09:41:14.263Z,85
2016-12-20T09:42:14.220Z,85
2016-12-20T09:43:14.193Z,85
2016-12-20T09:44:14.172Z,85
2016-12-20T09:45:14.152Z,85
2016-12-20T09:46:14.136Z,85
2016-12-20T09:47:14.117Z,85
2016-12-20T09:48:14.099Z,85
2016-12-20T09:49:14.405Z,85
2016-12-20T09:50:14.057Z,85
2016-12-20T09:51:14.044Z,85
2016-12-20T09:52:14.021Z,85
2016-12-20T09:53:14.004Z,85
2016-12-20T09:54:13.985Z,85
2016-12-20T09:55:13.969Z,85
2016-12-20T09:56:13.979Z,85
2016-12-20T09:57:13.929Z,85
2016-12-20T09:58:13.915Z,85
2016-12-20T09:59:13.891Z,85
2016-12-20T10:00:13.873Z,85
2016-12-20T10:01:13.870Z,85
2016-12-20T10:02:13.837Z,85
2016-12-20T10:03:13.818Z,85
2016-12-20T10:04:13.800Z,85
2016-12-20T10:05:13.780Z,85
2016-12-20T10:06:13.760Z,90
2016-12-20T10:07:13.745Z,90
2016-12-20T10:08:13.727Z,90
2016-12-20T10:09:13.706Z,90
2016-12-20T10:10:13.689Z,90
2016-12-20T10:11:13.671Z,90
2016-12-20T10:12:13.653Z,90
2016-12-20T10:13:13.630Z,90
2016-12-20T10:14:13.927Z,90
2016-12-20T10:15:13.593Z,90
2016-12-20T10:16:13.578Z,90
2016-12-20T10:17:13.562Z,90
2016-12-20T10:18:13.542Z,90
2016-12-20T10:19:13.526Z,90
2016-12-20T10:20:13.505Z,90
2016-12-20T10:21:13.492Z,90
2016-12-20T10:22:13.467Z,95
2016-12-20T10:23:13.451Z,95
2016-12-20T10:24:13.746Z,95
2016-12-20T10:25:13.433Z,95
2016-12-20T10:26:13.394Z,95
2016-12-20T10:27:13.372Z,95
2016-12-20T10:28:13.358Z,95
2016-12-20T10:29:13.339Z,95
2016-12-20T10:30:13.322Z,95
2016-12-20T10:31:13.303Z,95
2016-12-20T10:32:13.285Z,95
2016-12-20T10:33:13.267Z,95
2016-12-20T10:34:13.256Z,95
2016-12-20T10:35:13.229Z,95
2016-12-20T10:36:13.213Z,95
2016-12-20T10:37:13.197Z,95
2016-12-20T10:38:13.185Z,95
2016-12-20T10:39:13.162Z,95
2016-12-20T10:40:13.140Z,95
2016-12-20T10:41:13.125Z,95
2016-12-20T10:42:13.131Z,95
2016-12-20T10:43:13.086Z,95
2016-12-20T10:44:13.071Z,95
2016-12-20T10:45:13.370Z,95
2016-12-20T10:46:13.040Z,95
2016-12-20T10:47:13.013Z,95
2016-12-20T10:48:12.999Z,95
2016-12-20T10:49:12.978Z,95
2016-12-20T10:50:12.970Z,95
2016-12-20T10:51:12.951Z,95
2016-12-20T10:52:13.245Z,95
2016-12-20T10:53:12.910Z,95
2016-12-20T10:54:12.895Z,95
2016-12-20T10:55:12.875Z,95
2016-12-20T10:56:12.857Z,95
2016-12-20T10:57:12.841Z,95
2016-12-20T10:58:12.824Z,95
2016-12-20T10:59:12.802Z,95
2016-12-20T11:00:12.783Z,100
2016-12-20T11:01:12.767Z,100
2016-12-20T11:02:13.073Z,100
2016-12-20T11:03:12.731Z,100
2016-12-20T11:04:12.717Z,100
2016-12-20T11:05:12.733Z,100
2016-12-20T11:06:12.680Z,100
2016-12-20T11:07:12.697Z,100
2016-12-20T11:08:12.646Z,100
2016-12-20T11:09:12.628Z,100
2016-12-20T11:10:12.612Z,100
2016-12-20T11:11:12.591Z,100
2016-12-20T11:12:12.573Z,100
2016-12-20T11:13:12.560Z,100
2016-12-20T11:14:12.538Z,100
2016-12-20T11:15:12.527Z,95
2016-12-20T11:16:12.505Z,95
2016-12-20T11:17:12.492Z,95
2016-12-20T11:18:12.490Z,95
2016-12-20T11:19:12.453Z,95
2016-12-20T11:20:12.435Z,95
2016-12-20T11:21:12.423Z,95
2016-12-20T11:22:12.407Z,95
2016-12-20T11:23:12.386Z,95
2016-12-20T11:24:12.368Z,95
2016-12-20T11:25:12.350Z,95
2016-12-20T11:26:12.336Z,95
2016-12-20T11:27:12.315Z,95
2016-12-20T11:28:12.298Z,95
2016-12-20T11:29:12.283Z,95
2016-12-20T11:30:12.265Z,95
2016-12-20T11:31:12.247Z,95
2016-12-20T11:32:12.228Z,95
2016-12-20T11:33:12.215Z,95
2016-12-20T11:34:12.513Z,95
2016-12-20T11:35:12.178Z,95
2016-12-20T11:36:12.158Z,95
2016-12-20T11:37:12.142Z,95
2016-12-20T11:38:12.127Z,95
2016-12-20T11:39:12.108Z,95
2016-12-20T11:40:12.088Z,95
2016-12-20T11:41:12.075Z,95
2016-12-20T11:42:12.058Z,95
2016-12-20T11:43:12.039Z,95
2016-12-20T11:44:12.023Z,95
2016-12-20T11:45:12.007Z,95
2016-12-20T11:46:11.997Z,95
2016-12-20T11:47:11.970Z,95
2016-12-20T11:48:11.953Z,90
2016-12-20T11:49:11.941Z,90
2016-12-20T11:50:11.920Z,95
2016-12-20T11:51:11.898Z,90
2016-12-20T11:52:11.895Z,90
2016-12-20T11:53:11.872Z,90
2016-12-20T11:54:11.851Z,90
2016-12-20T11:55:11.832Z,90
2016-12-20T11:56:11.812Z,90
2016-12-20T11:57:11.801Z,90
2016-12-20T11:58:11.785Z,90
2016-12-20T11:59:11.789Z,90
2016-12-20T12:00:12.062Z,90
2016-12-20T12:01:12.046Z,90
2016-12-20T12:02:11.716Z,90
2016-12-20T12:03:11.700Z,90
2016-12-20T12:04:11.678Z,90
2016-12-20T12:05:11.665Z,90
2016-12-20T12:06:11.645Z,90
2016-12-20T12:07:11.630Z,90
2016-12-20T12:08:11.608Z,90
2016-12-20T12:09:11.592Z,90
2016-12-20T12:10:11.575Z,90
2016-12-20T12:11:11.560Z,90
2016-12-20T12:12:11.539Z,90
2016-12-20T12:13:11.522Z,90
2016-12-20T12:14:11.509Z,90
2016-12-20T12:15:11.492Z,90
2016-12-20T12:16:11.470Z,90
2016-12-20T12:17:11.456Z,90
2016-12-20T12:18:11.442Z,90
2016-12-20T12:19:11.422Z,90
2016-12-20T12:20:11.410Z,90
2016-12-20T12:21:11.411Z,90
2016-12-20T12:22:11.375Z,90
2016-12-20T12:23:11.680Z,90
2016-12-20T12:24:11.340Z,90
2016-12-20T12:25:11.325Z,85
2016-12-20T12:26:11.305Z,85
2016-12-20T12:27:11.287Z,85
2016-12-20T12:28:11.594Z,85
2016-12-20T12:29:11.255Z,85
2016-12-20T12:30:11.243Z,85
2016-12-20T12:31:11.220Z,85
2016-12-20T12:32:11.206Z,85
2016-12-20T12:33:11.504Z,85
2016-12-20T12:34:11.175Z,85
2016-12-20T12:35:11.157Z,85
2016-12-20T12:36:11.138Z,85
2016-12-20T12:37:11.118Z,85
2016-12-20T12:38:11.103Z,85
2016-12-20T12:39:11.084Z,85
2016-12-20T12:40:11.073Z,85
2016-12-20T12:41:11.056Z,85
2016-12-20T12:42:11.039Z,85
2016-12-20T12:43:11.022Z,85
2016-12-20T12:44:10.998Z,85
2016-12-20T12:45:10.990Z,85
2016-12-20T12:46:10.971Z,85
2016-12-20T12:47:10.950Z,85
2016-12-20T12:48:10.933Z,80
2016-12-20T12:49:10.916Z,80
2016-12-20T12:50:10.903Z,80
2016-12-20T12:51:10.889Z,80
2016-12-20T12:52:10.862Z,80
2016-12-20T12:53:10.849Z,80
2016-12-20T12:54:10.831Z,80
2016-12-20T12:55:10.814Z,80
2016-12-20T12:56:10.807Z,80
2016-12-20T12:57:10.783Z,80
2016-12-20T12:58:10.768Z,80
2016-12-20T12:59:10.778Z,80
2016-12-20T13:00:10.737Z,80
2016-12-20T13:01:10.716Z,80
2016-12-20T13:02:10.698Z,80
2016-12-20T13:03:10.689Z,80
2016-12-20T13:04:10.984Z,80
2016-12-20T13:05:10.646Z,80
2016-12-20T13:06:10.634Z,80
2016-12-20T13:07:10.613Z,80
2016-12-20T13:08:10.597Z,80
2016-12-20T13:09:10.582Z,80
2016-12-20T13:10:10.566Z,80
2016-12-20T13:11:10.549Z,80
2016-12-20T13:12:10.530Z,80
2016-12-20T13:13:10.515Z,75
2016-12-20T13:14:10.500Z,75
2016-12-20T13:15:10.481Z,75
2016-12-20T13:16:10.465Z,75
2016-12-20T13:17:10.443Z,75
2016-12-20T13:18:10.431Z,75
2016-12-20T13:19:10.416Z,75
2016-12-20T13:20:10.397Z,75
2016-12-20T13:21:10.375Z,75
2016-12-20T13:22:10.362Z,75
2016-12-20T13:23:10.342Z,75
2016-12-20T13:24:10.353Z,75
2016-12-20T13:25:10.308Z,75
2016-12-20T13:26:10.289Z,75
2016-12-20T13:27:10.313Z,75
2016-12-20T13:28:10.575Z,70
2016-12-20T13:29:10.561Z,70
2016-12-20T13:30:10.545Z,70
2016-12-20T13:31:10.239Z,70
2016-12-20T13:32:10.192Z,70
2016-12-20T13:33:10.204Z,70
2016-12-20T13:34:10.163Z,70
2016-12-20T13:35:10.144Z,70
2016-12-20T13:36:10.123Z,70
2016-12-20T13:37:10.110Z,70
2016-12-20T13:38:10.094Z,70
2016-12-20T13:39:10.078Z,70
2016-12-20T13:40:10.058Z,70
2016-12-20T13:41:10.074Z,65
2016-12-20T13:42:10.020Z,65
2016-12-20T13:43:10.006Z,65
2016-12-20T13:44:09.997Z,65
2016-12-20T13:45:09.972Z,65
2016-12-20T13:46:09.957Z,65
2016-12-20T13:47:09.937Z,65
2016-12-20T13:48:10.234Z,65
2016-12-20T13:49:09.900Z,65
2016-12-20T13:50:09.894Z,65
2016-12-20T13:51:09.873Z,65
2016-12-20T13:52:10.168Z,60
2016-12-20T13:53:09.838Z,60
2016-12-20T13:54:09.815Z,60
2016-12-20T13:55:09.802Z,60
2016-12-20T13:56:09.785Z,60
2016-12-20T13:57:09.769Z,60
2016-12-20T13:58:09.751Z,60
2016-12-20T13:59:09.770Z,60
2016-12-20T14:00:09.750Z,60
2016-12-20T14:01:10.015Z,55
2016-12-20T14:02:09.681Z,55
2016-12-20T14:03:09.668Z,55
2016-12-20T14:04:09.675Z,55
2016-12-20T14:05:09.627Z,55
2016-12-20T14:06:09.612Z,55
2016-12-20T14:07:09.592Z,55
2016-12-20T14:08:09.577Z,55
2016-12-20T14:09:09.567Z,55
2016-12-20T14:10:09.553Z,50
2016-12-20T14:11:09.533Z,50
2016-12-20T14:12:09.508Z,50
2016-12-20T14:13:09.496Z,50
2016-12-20T14:14:09.483Z,50
2016-12-20T14:15:09.465Z,50
2016-12-20T14:16:09.444Z,50
2016-12-20T14:17:09.449Z,50
2016-12-20T14:18:09.406Z,45
2016-12-20T14:19:09.397Z,45
2016-12-20T14:20:09.370Z,45
2016-12-20T14:21:09.356Z,45
2016-12-20T14:22:09.337Z,45
2016-12-20T14:23:09.323Z,45
2016-12-20T14:24:09.303Z,40
2016-12-20T14:25:09.288Z,40
2016-12-20T14:26:09.273Z,40
2016-12-20T14:27:09.254Z,40
2016-12-20T14:28:09.234Z,40
2016-12-20T14:29:09.539Z,40
2016-12-20T14:30:09.195Z,40